sensor_id;sensor_type;location;lat;lon;timestamp;P1;durP1;ratioP1;P2;durP2;ratioP2
74465;SDS011;62916;50.044;15.938;2023-06-10T00:01:16;4.10;;;3.80;;
74465;SDS011;62916;50.044;15.938;2023-06-10T00:03:47;2.70;;;2.50;;
74465;SDS011;62916;50.044;15.938;2023-06-10T00:06:18;4.20;;;2.60;;
74465;SDS011;62916;50.044;15.938;2023-06-10T00:08:52;2.90;;;2.60;;
74465;SDS011;62916;50.044;15.938;2023-06-10T00:11:23;2.60;;;2.40;;
74465;SDS011;62916;50.044;15.938;2023-06-10T00:13:54;2.90;;;2.40;;
74465;SDS011;62916;50.044;15.938;2023-06-10T00:16:25;4.30;;;2.20;;
74465;SDS011;62916;50.044;15.938;2023-06-10T00:18:56;3.40;;;2.10;;
74465;SDS011;62916;50.044;15.938;2023-06-10T00:21:29;2.40;;;2.10;;
74465;SDS011;62916;50.044;15.938;2023-06-10T00:24:05;2.40;;;2.20;;
74465;SDS011;62916;50.044;15.938;2023-06-10T00:26:40;3.10;;;2.20;;
74465;SDS011;62916;50.044;15.938;2023-06-10T00:29:11;2.50;;;2.30;;
74465;SDS011;62916;50.044;15.938;2023-06-10T00:31:43;2.30;;;2.10;;
74465;SDS011;62916;50.044;15.938;2023-06-10T00:34:14;2.60;;;2.20;;
74465;SDS011;62916;50.044;15.938;2023-06-10T00:36:45;3.20;;;2.10;;
74465;SDS011;62916;50.044;15.938;2023-06-10T00:39:16;2.80;;;2.20;;
74465;SDS011;62916;50.044;15.938;2023-06-10T00:41:47;2.00;;;1.90;;
74465;SDS011;62916;50.044;15.938;2023-06-10T00:44:17;2.40;;;2.10;;
74465;SDS011;62916;50.044;15.938;2023-06-10T00:46:48;2.60;;;2.40;;
74465;SDS011;62916;50.044;15.938;2023-06-10T00:49:23;2.30;;;2.10;;
74465;SDS011;62916;50.044;15.938;2023-06-10T00:51:54;3.10;;;2.80;;
74465;SDS011;62916;50.044;15.938;2023-06-10T00:54:27;2.80;;;1.90;;
74465;SDS011;62916;50.044;15.938;2023-06-10T00:56:59;2.60;;;2.40;;
74465;SDS011;62916;50.044;15.938;2023-06-10T00:59:31;2.70;;;2.50;;
74465;SDS011;62916;50.044;15.938;2023-06-10T01:02:03;2.40;;;2.20;;
74465;SDS011;62916;50.044;15.938;2023-06-10T01:04:35;2.00;;;1.80;;
74465;SDS011;62916;50.044;15.938;2023-06-10T01:07:08;3.20;;;1.90;;
74465;SDS011;62916;50.044;15.938;2023-06-10T01:09:45;2.40;;;2.20;;
74465;SDS011;62916;50.044;15.938;2023-06-10T01:12:33;2.30;;;2.10;;
74465;SDS011;62916;50.044;15.938;2023-06-10T01:15:08;2.50;;;2.30;;
74465;SDS011;62916;50.044;15.938;2023-06-10T01:20:38;2.10;;;1.90;;
74465;SDS011;62916;50.044;15.938;2023-06-10T01:23:10;2.20;;;2.10;;
74465;SDS011;62916;50.044;15.938;2023-06-10T01:25:44;2.00;;;1.70;;
74465;SDS011;62916;50.044;15.938;2023-06-10T01:28:18;1.90;;;1.80;;
74465;SDS011;62916;50.044;15.938;2023-06-10T01:30:55;2.20;;;2.00;;
74465;SDS011;62916;50.044;15.938;2023-06-10T01:33:37;2.30;;;2.10;;
74465;SDS011;62916;50.044;15.938;2023-06-10T01:36:12;2.10;;;1.90;;
74465;SDS011;62916;50.044;15.938;2023-06-10T01:38:46;5.50;;;1.80;;
74465;SDS011;62916;50.044;15.938;2023-06-10T01:41:18;3.80;;;2.10;;
74465;SDS011;62916;50.044;15.938;2023-06-10T01:43:51;2.20;;;2.00;;
74465;SDS011;62916;50.044;15.938;2023-06-10T01:46:23;2.20;;;2.00;;
74465;SDS011;62916;50.044;15.938;2023-06-10T01:48:54;2.60;;;2.10;;
74465;SDS011;62916;50.044;15.938;2023-06-10T01:51:25;2.40;;;1.80;;
74465;SDS011;62916;50.044;15.938;2023-06-10T01:53:55;2.40;;;2.20;;
74465;SDS011;62916;50.044;15.938;2023-06-10T01:56:26;2.20;;;2.00;;
74465;SDS011;62916;50.044;15.938;2023-06-10T01:58:57;3.00;;;2.10;;
74465;SDS011;62916;50.044;15.938;2023-06-10T02:01:28;2.20;;;2.00;;
74465;SDS011;62916;50.044;15.938;2023-06-10T02:03:59;2.20;;;2.00;;
74465;SDS011;62916;50.044;15.938;2023-06-10T02:06:30;3.90;;;2.60;;
74465;SDS011;62916;50.044;15.938;2023-06-10T02:09:02;2.70;;;2.10;;
74465;SDS011;62916;50.044;15.938;2023-06-10T02:11:33;3.30;;;2.00;;
74465;SDS011;62916;50.044;15.938;2023-06-10T02:14:04;2.40;;;2.00;;
74465;SDS011;62916;50.044;15.938;2023-06-10T02:16:34;3.10;;;2.20;;
74465;SDS011;62916;50.044;15.938;2023-06-10T02:19:05;2.80;;;2.40;;
74465;SDS011;62916;50.044;15.938;2023-06-10T02:21:36;3.30;;;1.80;;
74465;SDS011;62916;50.044;15.938;2023-06-10T02:24:07;2.40;;;2.20;;
74465;SDS011;62916;50.044;15.938;2023-06-10T02:26:38;2.20;;;2.00;;
74465;SDS011;62916;50.044;15.938;2023-06-10T02:29:09;2.30;;;2.10;;
74465;SDS011;62916;50.044;15.938;2023-06-10T02:31:40;1.80;;;1.70;;
74465;SDS011;62916;50.044;15.938;2023-06-10T02:34:11;2.60;;;2.20;;
74465;SDS011;62916;50.044;15.938;2023-06-10T02:36:43;2.60;;;2.10;;
74465;SDS011;62916;50.044;15.938;2023-06-10T02:39:14;4.00;;;2.00;;
74465;SDS011;62916;50.044;15.938;2023-06-10T02:41:45;2.00;;;1.90;;
74465;SDS011;62916;50.044;15.938;2023-06-10T02:44:17;2.50;;;2.10;;
74465;SDS011;62916;50.044;15.938;2023-06-10T02:46:48;2.00;;;1.70;;
74465;SDS011;62916;50.044;15.938;2023-06-10T02:49:19;2.30;;;1.80;;
74465;SDS011;62916;50.044;15.938;2023-06-10T02:51:50;4.60;;;2.00;;
74465;SDS011;62916;50.044;15.938;2023-06-10T02:54:22;3.10;;;2.00;;
74465;SDS011;62916;50.044;15.938;2023-06-10T02:56:52;2.50;;;2.20;;
74465;SDS011;62916;50.044;15.938;2023-06-10T02:59:23;3.50;;;1.90;;
74465;SDS011;62916;50.044;15.938;2023-06-10T03:01:56;2.90;;;2.00;;
74465;SDS011;62916;50.044;15.938;2023-06-10T03:04:29;3.80;;;2.10;;
74465;SDS011;62916;50.044;15.938;2023-06-10T03:07:00;2.10;;;1.90;;
74465;SDS011;62916;50.044;15.938;2023-06-10T03:09:31;2.20;;;2.00;;
74465;SDS011;62916;50.044;15.938;2023-06-10T03:12:02;2.20;;;2.00;;
74465;SDS011;62916;50.044;15.938;2023-06-10T03:14:34;3.20;;;2.20;;
74465;SDS011;62916;50.044;15.938;2023-06-10T03:17:06;3.10;;;2.50;;
74465;SDS011;62916;50.044;15.938;2023-06-10T03:19:37;2.80;;;2.10;;
74465;SDS011;62916;50.044;15.938;2023-06-10T03:22:09;2.50;;;2.20;;
74465;SDS011;62916;50.044;15.938;2023-06-10T03:24:40;2.80;;;2.00;;
74465;SDS011;62916;50.044;15.938;2023-06-10T03:29:43;2.10;;;1.70;;
74465;SDS011;62916;50.044;15.938;2023-06-10T03:32:14;2.40;;;2.20;;
74465;SDS011;62916;50.044;15.938;2023-06-10T03:34:45;2.70;;;2.10;;
74465;SDS011;62916;50.044;15.938;2023-06-10T03:37:16;3.80;;;2.10;;
74465;SDS011;62916;50.044;15.938;2023-06-10T03:39:47;2.10;;;1.70;;
74465;SDS011;62916;50.044;15.938;2023-06-10T03:42:18;2.00;;;1.90;;
74465;SDS011;62916;50.044;15.938;2023-06-10T03:44:48;2.10;;;2.00;;
74465;SDS011;62916;50.044;15.938;2023-06-10T03:47:19;3.70;;;1.80;;
74465;SDS011;62916;50.044;15.938;2023-06-10T03:49:50;2.50;;;2.00;;
74465;SDS011;62916;50.044;15.938;2023-06-10T03:52:21;4.40;;;2.50;;
74465;SDS011;62916;50.044;15.938;2023-06-10T03:54:52;4.90;;;2.30;;
74465;SDS011;62916;50.044;15.938;2023-06-10T03:57:23;3.20;;;2.60;;
74465;SDS011;62916;50.044;15.938;2023-06-10T03:59:53;3.50;;;2.00;;
74465;SDS011;62916;50.044;15.938;2023-06-10T04:02:25;2.20;;;2.10;;
74465;SDS011;62916;50.044;15.938;2023-06-10T04:04:56;2.40;;;2.30;;
74465;SDS011;62916;50.044;15.938;2023-06-10T04:07:28;3.00;;;2.00;;
74465;SDS011;62916;50.044;15.938;2023-06-10T04:09:59;2.60;;;2.10;;
74465;SDS011;62916;50.044;15.938;2023-06-10T04:12:30;2.60;;;2.30;;
74465;SDS011;62916;50.044;15.938;2023-06-10T04:15:01;2.40;;;2.10;;
74465;SDS011;62916;50.044;15.938;2023-06-10T04:17:33;2.90;;;2.20;;
74465;SDS011;62916;50.044;15.938;2023-06-10T04:20:05;3.10;;;1.90;;
74465;SDS011;62916;50.044;15.938;2023-06-10T04:22:37;6.20;;;2.10;;
74465;SDS011;62916;50.044;15.938;2023-06-10T04:25:08;2.40;;;2.00;;
74465;SDS011;62916;50.044;15.938;2023-06-10T04:27:39;1.90;;;1.70;;
74465;SDS011;62916;50.044;15.938;2023-06-10T04:30:11;2.40;;;2.10;;
74465;SDS011;62916;50.044;15.938;2023-06-10T04:32:44;2.40;;;2.20;;
74465;SDS011;62916;50.044;15.938;2023-06-10T04:35:16;4.50;;;2.30;;
74465;SDS011;62916;50.044;15.938;2023-06-10T04:37:47;2.80;;;2.40;;
74465;SDS011;62916;50.044;15.938;2023-06-10T04:40:18;2.70;;;2.00;;
74465;SDS011;62916;50.044;15.938;2023-06-10T04:42:48;2.20;;;2.00;;
74465;SDS011;62916;50.044;15.938;2023-06-10T04:45:19;2.50;;;2.30;;
74465;SDS011;62916;50.044;15.938;2023-06-10T04:47:50;3.00;;;2.30;;
74465;SDS011;62916;50.044;15.938;2023-06-10T04:50:23;3.00;;;2.60;;
74465;SDS011;62916;50.044;15.938;2023-06-10T04:52:54;2.30;;;2.00;;
74465;SDS011;62916;50.044;15.938;2023-06-10T04:55:25;2.50;;;2.30;;
74465;SDS011;62916;50.044;15.938;2023-06-10T04:57:56;3.60;;;2.30;;
74465;SDS011;62916;50.044;15.938;2023-06-10T05:00:26;2.50;;;2.10;;
74465;SDS011;62916;50.044;15.938;2023-06-10T05:02:57;3.10;;;2.50;;
74465;SDS011;62916;50.044;15.938;2023-06-10T05:05:29;4.80;;;3.00;;
74465;SDS011;62916;50.044;15.938;2023-06-10T05:07:59;2.70;;;2.50;;
74465;SDS011;62916;50.044;15.938;2023-06-10T05:10:34;2.60;;;2.40;;
74465;SDS011;62916;50.044;15.938;2023-06-10T05:13:05;2.90;;;2.50;;
74465;SDS011;62916;50.044;15.938;2023-06-10T05:15:35;2.50;;;2.20;;
74465;SDS011;62916;50.044;15.938;2023-06-10T05:18:06;2.50;;;2.30;;
74465;SDS011;62916;50.044;15.938;2023-06-10T05:20:37;2.40;;;2.20;;
74465;SDS011;62916;50.044;15.938;2023-06-10T05:23:08;2.70;;;2.10;;
74465;SDS011;62916;50.044;15.938;2023-06-10T05:25:38;2.40;;;2.30;;
74465;SDS011;62916;50.044;15.938;2023-06-10T05:28:10;3.50;;;2.30;;
74465;SDS011;62916;50.044;15.938;2023-06-10T05:30:42;3.30;;;2.60;;
74465;SDS011;62916;50.044;15.938;2023-06-10T05:33:13;2.90;;;2.40;;
74465;SDS011;62916;50.044;15.938;2023-06-10T05:35:44;3.40;;;2.70;;
74465;SDS011;62916;50.044;15.938;2023-06-10T05:38:14;2.40;;;2.20;;
74465;SDS011;62916;50.044;15.938;2023-06-10T05:40:45;2.70;;;2.20;;
74465;SDS011;62916;50.044;15.938;2023-06-10T05:43:16;2.80;;;2.60;;
74465;SDS011;62916;50.044;15.938;2023-06-10T05:45:47;4.00;;;2.60;;
74465;SDS011;62916;50.044;15.938;2023-06-10T05:48:18;3.00;;;2.70;;
74465;SDS011;62916;50.044;15.938;2023-06-10T05:50:49;2.90;;;2.70;;
74465;SDS011;62916;50.044;15.938;2023-06-10T05:53:19;3.20;;;2.50;;
74465;SDS011;62916;50.044;15.938;2023-06-10T05:55:50;4.10;;;3.20;;
74465;SDS011;62916;50.044;15.938;2023-06-10T05:58:25;3.50;;;2.50;;
74465;SDS011;62916;50.044;15.938;2023-06-10T06:00:55;3.30;;;2.70;;
74465;SDS011;62916;50.044;15.938;2023-06-10T06:03:26;2.90;;;2.60;;
74465;SDS011;62916;50.044;15.938;2023-06-10T06:05:58;3.20;;;2.90;;
74465;SDS011;62916;50.044;15.938;2023-06-10T06:08:30;3.70;;;3.30;;
74465;SDS011;62916;50.044;15.938;2023-06-10T06:11:01;3.70;;;2.60;;
74465;SDS011;62916;50.044;15.938;2023-06-10T06:13:32;5.10;;;2.90;;
74465;SDS011;62916;50.044;15.938;2023-06-10T06:16:03;3.70;;;3.40;;
74465;SDS011;62916;50.044;15.938;2023-06-10T06:18:34;3.10;;;2.60;;
74465;SDS011;62916;50.044;15.938;2023-06-10T06:21:05;3.60;;;3.20;;
74465;SDS011;62916;50.044;15.938;2023-06-10T06:23:35;3.40;;;3.00;;
74465;SDS011;62916;50.044;15.938;2023-06-10T06:26:06;2.90;;;2.60;;
74465;SDS011;62916;50.044;15.938;2023-06-10T06:28:37;3.20;;;2.90;;
74465;SDS011;62916;50.044;15.938;2023-06-10T06:31:08;5.90;;;2.80;;
74465;SDS011;62916;50.044;15.938;2023-06-10T06:33:40;3.30;;;2.90;;
74465;SDS011;62916;50.044;15.938;2023-06-10T06:36:11;3.20;;;2.90;;
74465;SDS011;62916;50.044;15.938;2023-06-10T06:38:41;3.30;;;3.00;;
74465;SDS011;62916;50.044;15.938;2023-06-10T06:41:12;4.20;;;3.90;;
74465;SDS011;62916;50.044;15.938;2023-06-10T06:43:43;4.80;;;3.30;;
74465;SDS011;62916;50.044;15.938;2023-06-10T06:46:14;4.10;;;3.00;;
74465;SDS011;62916;50.044;15.938;2023-06-10T06:48:45;3.60;;;2.70;;
74465;SDS011;62916;50.044;15.938;2023-06-10T06:51:16;3.10;;;2.80;;
74465;SDS011;62916;50.044;15.938;2023-06-10T06:53:47;3.90;;;3.00;;
74465;SDS011;62916;50.044;15.938;2023-06-10T06:56:19;3.60;;;3.30;;
74465;SDS011;62916;50.044;15.938;2023-06-10T06:58:50;3.90;;;3.40;;
74465;SDS011;62916;50.044;15.938;2023-06-10T07:01:24;3.30;;;2.90;;
74465;SDS011;62916;50.044;15.938;2023-06-10T07:03:55;3.10;;;2.80;;
74465;SDS011;62916;50.044;15.938;2023-06-10T07:06:26;4.10;;;3.20;;
74465;SDS011;62916;50.044;15.938;2023-06-10T07:08:57;5.00;;;3.40;;
74465;SDS011;62916;50.044;15.938;2023-06-10T07:11:28;4.90;;;3.30;;
74465;SDS011;62916;50.044;15.938;2023-06-10T07:13:58;4.30;;;3.20;;
74465;SDS011;62916;50.044;15.938;2023-06-10T07:16:29;6.80;;;3.50;;
74465;SDS011;62916;50.044;15.938;2023-06-10T07:19:00;4.30;;;3.20;;
74465;SDS011;62916;50.044;15.938;2023-06-10T07:21:33;5.80;;;3.90;;
74465;SDS011;62916;50.044;15.938;2023-06-10T07:24:04;4.20;;;3.40;;
74465;SDS011;62916;50.044;15.938;2023-06-10T07:26:36;4.10;;;3.80;;
74465;SDS011;62916;50.044;15.938;2023-06-10T07:29:06;5.90;;;3.60;;
74465;SDS011;62916;50.044;15.938;2023-06-10T07:31:37;4.90;;;3.30;;
74465;SDS011;62916;50.044;15.938;2023-06-10T07:34:09;4.80;;;3.90;;
74465;SDS011;62916;50.044;15.938;2023-06-10T07:36:40;5.40;;;3.70;;
74465;SDS011;62916;50.044;15.938;2023-06-10T07:39:11;4.50;;;3.80;;
74465;SDS011;62916;50.044;15.938;2023-06-10T07:41:42;3.90;;;3.30;;
74465;SDS011;62916;50.044;15.938;2023-06-10T07:44:13;4.00;;;3.60;;
74465;SDS011;62916;50.044;15.938;2023-06-10T07:46:44;5.40;;;3.90;;
74465;SDS011;62916;50.044;15.938;2023-06-10T07:49:14;3.40;;;3.00;;
74465;SDS011;62916;50.044;15.938;2023-06-10T07:51:45;4.10;;;3.40;;
74465;SDS011;62916;50.044;15.938;2023-06-10T07:54:16;4.30;;;3.90;;
74465;SDS011;62916;50.044;15.938;2023-06-10T07:56:47;3.90;;;3.40;;
74465;SDS011;62916;50.044;15.938;2023-06-10T07:59:20;4.30;;;3.90;;
74465;SDS011;62916;50.044;15.938;2023-06-10T08:01:50;4.00;;;3.60;;
74465;SDS011;62916;50.044;15.938;2023-06-10T08:04:21;4.70;;;3.50;;
74465;SDS011;62916;50.044;15.938;2023-06-10T08:06:52;5.70;;;3.60;;
74465;SDS011;62916;50.044;15.938;2023-06-10T08:09:24;4.90;;;3.70;;
74465;SDS011;62916;50.044;15.938;2023-06-10T08:11:54;3.50;;;3.20;;
74465;SDS011;62916;50.044;15.938;2023-06-10T08:14:25;3.60;;;3.30;;
74465;SDS011;62916;50.044;15.938;2023-06-10T08:16:56;3.50;;;3.20;;
74465;SDS011;62916;50.044;15.938;2023-06-10T08:19:27;4.20;;;3.80;;
74465;SDS011;62916;50.044;15.938;2023-06-10T08:21:58;4.30;;;3.90;;
74465;SDS011;62916;50.044;15.938;2023-06-10T08:24:29;4.40;;;4.00;;
74465;SDS011;62916;50.044;15.938;2023-06-10T08:27:00;3.50;;;3.20;;
74465;SDS011;62916;50.044;15.938;2023-06-10T08:29:30;4.90;;;3.20;;
74465;SDS011;62916;50.044;15.938;2023-06-10T08:32:01;3.70;;;3.40;;
74465;SDS011;62916;50.044;15.938;2023-06-10T08:34:33;4.60;;;4.10;;
74465;SDS011;62916;50.044;15.938;2023-06-10T08:37:05;4.20;;;3.70;;
74465;SDS011;62916;50.044;15.938;2023-06-10T08:39:36;4.40;;;3.90;;
74465;SDS011;62916;50.044;15.938;2023-06-10T08:42:09;4.20;;;3.80;;
74465;SDS011;62916;50.044;15.938;2023-06-10T08:44:46;4.10;;;3.70;;
74465;SDS011;62916;50.044;15.938;2023-06-10T08:47:19;4.60;;;4.20;;
74465;SDS011;62916;50.044;15.938;2023-06-10T08:49:53;4.40;;;3.60;;
74465;SDS011;62916;50.044;15.938;2023-06-10T08:52:33;4.40;;;4.00;;
74465;SDS011;62916;50.044;15.938;2023-06-10T08:55:08;4.60;;;4.20;;
74465;SDS011;62916;50.044;15.938;2023-06-10T08:57:42;4.80;;;4.30;;
74465;SDS011;62916;50.044;15.938;2023-06-10T09:00:16;4.70;;;4.30;;
74465;SDS011;62916;50.044;15.938;2023-06-10T09:02:47;5.10;;;4.70;;
74465;SDS011;62916;50.044;15.938;2023-06-10T09:05:19;4.50;;;4.20;;
74465;SDS011;62916;50.044;15.938;2023-06-10T09:07:50;5.00;;;4.30;;
74465;SDS011;62916;50.044;15.938;2023-06-10T09:10:22;5.30;;;4.80;;
74465;SDS011;62916;50.044;15.938;2023-06-10T09:12:54;5.50;;;5.00;;
74465;SDS011;62916;50.044;15.938;2023-06-10T09:15:25;5.10;;;4.70;;
74465;SDS011;62916;50.044;15.938;2023-06-10T09:17:57;5.30;;;4.80;;
74465;SDS011;62916;50.044;15.938;2023-06-10T09:20:28;5.60;;;5.10;;
74465;SDS011;62916;50.044;15.938;2023-06-10T09:23:00;6.30;;;5.70;;
74465;SDS011;62916;50.044;15.938;2023-06-10T09:25:38;6.20;;;5.60;;
74465;SDS011;62916;50.044;15.938;2023-06-10T09:28:14;7.60;;;5.90;;
74465;SDS011;62916;50.044;15.938;2023-06-10T09:30:45;7.10;;;6.40;;
74465;SDS011;62916;50.044;15.938;2023-06-10T09:33:16;6.90;;;6.20;;
74465;SDS011;62916;50.044;15.938;2023-06-10T09:35:47;7.60;;;6.90;;
74465;SDS011;62916;50.044;15.938;2023-06-10T09:38:20;6.90;;;6.30;;
74465;SDS011;62916;50.044;15.938;2023-06-10T09:40:52;7.30;;;6.50;;
74465;SDS011;62916;50.044;15.938;2023-06-10T09:43:23;7.90;;;6.80;;
74465;SDS011;62916;50.044;15.938;2023-06-10T09:48:45;6.90;;;6.20;;
74465;SDS011;62916;50.044;15.938;2023-06-10T09:51:16;6.50;;;5.90;;
74465;SDS011;62916;50.044;15.938;2023-06-10T09:53:49;7.80;;;6.90;;
74465;SDS011;62916;50.044;15.938;2023-06-10T09:56:21;7.30;;;6.60;;
74465;SDS011;62916;50.044;15.938;2023-06-10T09:59:01;6.70;;;6.00;;
74465;SDS011;62916;50.044;15.938;2023-06-10T10:01:34;7.00;;;6.30;;
74465;SDS011;62916;50.044;15.938;2023-06-10T10:04:05;9.60;;;6.50;;
74465;SDS011;62916;50.044;15.938;2023-06-10T10:06:36;7.70;;;6.80;;
74465;SDS011;62916;50.044;15.938;2023-06-10T10:09:08;7.90;;;6.60;;
74465;SDS011;62916;50.044;15.938;2023-06-10T10:11:39;7.20;;;6.60;;
74465;SDS011;62916;50.044;15.938;2023-06-10T10:14:11;7.10;;;6.00;;
74465;SDS011;62916;50.044;15.938;2023-06-10T10:16:45;7.60;;;6.80;;
74465;SDS011;62916;50.044;15.938;2023-06-10T10:19:20;6.90;;;6.20;;
74465;SDS011;62916;50.044;15.938;2023-06-10T10:21:56;7.30;;;6.10;;
74465;SDS011;62916;50.044;15.938;2023-06-10T10:24:34;9.30;;;6.60;;
74465;SDS011;62916;50.044;15.938;2023-06-10T10:27:14;6.50;;;5.90;;
74465;SDS011;62916;50.044;15.938;2023-06-10T10:29:47;7.00;;;6.40;;
74465;SDS011;62916;50.044;15.938;2023-06-10T10:32:22;7.40;;;6.70;;
74465;SDS011;62916;50.044;15.938;2023-06-10T10:35:00;6.90;;;6.20;;
74465;SDS011;62916;50.044;15.938;2023-06-10T10:37:37;9.50;;;6.70;;
74465;SDS011;62916;50.044;15.938;2023-06-10T10:40:08;6.90;;;6.30;;
74465;SDS011;62916;50.044;15.938;2023-06-10T10:42:41;6.60;;;6.00;;
74465;SDS011;62916;50.044;15.938;2023-06-10T10:45:12;7.00;;;6.30;;
74465;SDS011;62916;50.044;15.938;2023-06-10T10:47:44;6.80;;;6.20;;
74465;SDS011;62916;50.044;15.938;2023-06-10T10:50:21;7.20;;;6.00;;
74465;SDS011;62916;50.044;15.938;2023-06-10T10:52:53;9.20;;;6.40;;
74465;SDS011;62916;50.044;15.938;2023-06-10T10:55:26;7.20;;;6.50;;
74465;SDS011;62916;50.044;15.938;2023-06-10T10:57:58;6.70;;;5.90;;
74465;SDS011;62916;50.044;15.938;2023-06-10T11:00:32;6.60;;;6.00;;
74465;SDS011;62916;50.044;15.938;2023-06-10T11:03:06;7.10;;;6.30;;
74465;SDS011;62916;50.044;15.938;2023-06-10T11:05:42;6.50;;;5.90;;
74465;SDS011;62916;50.044;15.938;2023-06-10T11:08:45;6.80;;;6.10;;
74465;SDS011;62916;50.044;15.938;2023-06-10T11:11:22;6.60;;;5.90;;
74465;SDS011;62916;50.044;15.938;2023-06-10T11:13:59;7.30;;;6.40;;
74465;SDS011;62916;50.044;15.938;2023-06-10T11:16:41;6.10;;;5.50;;
74465;SDS011;62916;50.044;15.938;2023-06-10T11:19:18;6.70;;;6.10;;
74465;SDS011;62916;50.044;15.938;2023-06-10T11:22:05;7.10;;;6.20;;
74465;SDS011;62916;50.044;15.938;2023-06-10T11:24:37;7.80;;;6.00;;
74465;SDS011;62916;50.044;15.938;2023-06-10T11:27:18;8.60;;;6.20;;
74465;SDS011;62916;50.044;15.938;2023-06-10T11:32:28;6.00;;;5.50;;
74465;SDS011;62916;50.044;15.938;2023-06-10T11:35:01;7.20;;;5.70;;
74465;SDS011;62916;50.044;15.938;2023-06-10T11:37:35;6.40;;;5.80;;
74465;SDS011;62916;50.044;15.938;2023-06-10T11:40:07;7.40;;;6.80;;
74465;SDS011;62916;50.044;15.938;2023-06-10T11:42:40;6.40;;;5.90;;
74465;SDS011;62916;50.044;15.938;2023-06-10T11:45:15;6.80;;;5.90;;
74465;SDS011;62916;50.044;15.938;2023-06-10T11:47:56;7.20;;;6.50;;
74465;SDS011;62916;50.044;15.938;2023-06-10T11:50:31;6.50;;;5.90;;
74465;SDS011;62916;50.044;15.938;2023-06-10T11:53:03;7.60;;;6.10;;
74465;SDS011;62916;50.044;15.938;2023-06-10T11:55:44;6.40;;;5.90;;
74465;SDS011;62916;50.044;15.938;2023-06-10T11:58:16;6.60;;;5.90;;
74465;SDS011;62916;50.044;15.938;2023-06-10T12:00:48;6.50;;;5.90;;
74465;SDS011;62916;50.044;15.938;2023-06-10T12:03:21;6.50;;;5.90;;
74465;SDS011;62916;50.044;15.938;2023-06-10T12:05:56;6.10;;;5.50;;
74465;SDS011;62916;50.044;15.938;2023-06-10T12:08:28;6.00;;;5.40;;
74465;SDS011;62916;50.044;15.938;2023-06-10T12:11:03;5.80;;;5.20;;
74465;SDS011;62916;50.044;15.938;2023-06-10T12:13:36;6.20;;;5.60;;
74465;SDS011;62916;50.044;15.938;2023-06-10T12:16:14;6.00;;;5.50;;
74465;SDS011;62916;50.044;15.938;2023-06-10T12:18:47;6.30;;;5.70;;
74465;SDS011;62916;50.044;15.938;2023-06-10T12:21:19;5.80;;;5.30;;
74465;SDS011;62916;50.044;15.938;2023-06-10T12:24:05;6.40;;;5.30;;
74465;SDS011;62916;50.044;15.938;2023-06-10T12:26:38;5.80;;;5.30;;
74465;SDS011;62916;50.044;15.938;2023-06-10T12:29:18;6.60;;;5.90;;
74465;SDS011;62916;50.044;15.938;2023-06-10T12:31:55;7.30;;;5.30;;
74465;SDS011;62916;50.044;15.938;2023-06-10T12:34:34;5.20;;;4.60;;
74465;SDS011;62916;50.044;15.938;2023-06-10T12:37:06;5.90;;;5.20;;
74465;SDS011;62916;50.044;15.938;2023-06-10T12:39:42;5.20;;;4.70;;
74465;SDS011;62916;50.044;15.938;2023-06-10T12:42:22;7.50;;;5.00;;
74465;SDS011;62916;50.044;15.938;2023-06-10T12:44:54;6.50;;;5.10;;
74465;SDS011;62916;50.044;15.938;2023-06-10T12:47:31;6.00;;;4.90;;
74465;SDS011;62916;50.044;15.938;2023-06-10T12:50:04;5.80;;;4.90;;
74465;SDS011;62916;50.044;15.938;2023-06-10T12:52:36;5.40;;;4.90;;
74465;SDS011;62916;50.044;15.938;2023-06-10T12:55:08;5.60;;;5.10;;
74465;SDS011;62916;50.044;15.938;2023-06-10T12:57:48;5.00;;;4.50;;
74465;SDS011;62916;50.044;15.938;2023-06-10T13:00:19;5.20;;;4.70;;
74465;SDS011;62916;50.044;15.938;2023-06-10T13:02:53;5.10;;;4.70;;
74465;SDS011;62916;50.044;15.938;2023-06-10T13:05:24;5.10;;;4.60;;
74465;SDS011;62916;50.044;15.938;2023-06-10T13:07:55;5.30;;;4.80;;
74465;SDS011;62916;50.044;15.938;2023-06-10T13:10:26;6.60;;;5.10;;
74465;SDS011;62916;50.044;15.938;2023-06-10T13:12:57;5.40;;;4.90;;
74465;SDS011;62916;50.044;15.938;2023-06-10T13:15:28;5.90;;;5.10;;
74465;SDS011;62916;50.044;15.938;2023-06-10T13:18:00;4.90;;;4.50;;
74465;SDS011;62916;50.044;15.938;2023-06-10T13:20:31;5.20;;;4.80;;
74465;SDS011;62916;50.044;15.938;2023-06-10T13:23:02;4.90;;;4.50;;
74465;SDS011;62916;50.044;15.938;2023-06-10T13:25:33;5.00;;;4.50;;
74465;SDS011;62916;50.044;15.938;2023-06-10T13:28:04;5.40;;;4.80;;
74465;SDS011;62916;50.044;15.938;2023-06-10T13:30:35;6.80;;;5.00;;
74465;SDS011;62916;50.044;15.938;2023-06-10T13:33:06;6.50;;;5.40;;
74465;SDS011;62916;50.044;15.938;2023-06-10T13:35:37;5.50;;;5.00;;
74465;SDS011;62916;50.044;15.938;2023-06-10T13:38:09;6.20;;;5.70;;
74465;SDS011;62916;50.044;15.938;2023-06-10T13:40:40;5.10;;;4.70;;
74465;SDS011;62916;50.044;15.938;2023-06-10T13:43:12;5.80;;;5.30;;
74465;SDS011;62916;50.044;15.938;2023-06-10T13:45:43;5.80;;;5.10;;
74465;SDS011;62916;50.044;15.938;2023-06-10T13:48:14;5.70;;;5.10;;
74465;SDS011;62916;50.044;15.938;2023-06-10T13:53:17;6.00;;;5.30;;
74465;SDS011;62916;50.044;15.938;2023-06-10T13:55:48;6.10;;;5.40;;
74465;SDS011;62916;50.044;15.938;2023-06-10T13:58:19;5.60;;;5.10;;
74465;SDS011;62916;50.044;15.938;2023-06-10T14:00:50;6.50;;;5.30;;
74465;SDS011;62916;50.044;15.938;2023-06-10T14:03:21;5.80;;;5.30;;
74465;SDS011;62916;50.044;15.938;2023-06-10T14:05:52;5.70;;;5.20;;
74465;SDS011;62916;50.044;15.938;2023-06-10T14:08:23;5.60;;;4.90;;
74465;SDS011;62916;50.044;15.938;2023-06-10T14:10:54;5.40;;;4.90;;
74465;SDS011;62916;50.044;15.938;2023-06-10T14:13:25;5.60;;;5.20;;
74465;SDS011;62916;50.044;15.938;2023-06-10T14:15:56;5.40;;;4.90;;
74465;SDS011;62916;50.044;15.938;2023-06-10T14:18:30;5.20;;;4.70;;
74465;SDS011;62916;50.044;15.938;2023-06-10T14:21:01;5.70;;;5.10;;
74465;SDS011;62916;50.044;15.938;2023-06-10T14:23:32;5.90;;;5.30;;
74465;SDS011;62916;50.044;15.938;2023-06-10T14:26:03;6.30;;;5.20;;
74465;SDS011;62916;50.044;15.938;2023-06-10T14:28:35;5.60;;;4.80;;
74465;SDS011;62916;50.044;15.938;2023-06-10T14:31:06;7.90;;;5.10;;
74465;SDS011;62916;50.044;15.938;2023-06-10T14:33:37;5.70;;;5.20;;
74465;SDS011;62916;50.044;15.938;2023-06-10T14:36:10;6.00;;;4.60;;
74465;SDS011;62916;50.044;15.938;2023-06-10T14:38:41;5.30;;;4.90;;
74465;SDS011;62916;50.044;15.938;2023-06-10T14:41:13;5.30;;;4.40;;
74465;SDS011;62916;50.044;15.938;2023-06-10T14:43:44;5.90;;;5.00;;
74465;SDS011;62916;50.044;15.938;2023-06-10T14:46:15;4.60;;;4.20;;
74465;SDS011;62916;50.044;15.938;2023-06-10T14:48:48;5.00;;;4.60;;
74465;SDS011;62916;50.044;15.938;2023-06-10T14:51:19;6.00;;;4.60;;
74465;SDS011;62916;50.044;15.938;2023-06-10T14:53:50;5.00;;;4.60;;
74465;SDS011;62916;50.044;15.938;2023-06-10T14:56:22;6.20;;;5.00;;
74465;SDS011;62916;50.044;15.938;2023-06-10T14:58:53;5.20;;;4.80;;
74465;SDS011;62916;50.044;15.938;2023-06-10T15:01:25;6.00;;;5.50;;
74465;SDS011;62916;50.044;15.938;2023-06-10T15:03:58;4.70;;;4.20;;
74465;SDS011;62916;50.044;15.938;2023-06-10T15:06:29;5.90;;;5.30;;
74465;SDS011;62916;50.044;15.938;2023-06-10T15:09:00;4.70;;;4.30;;
74465;SDS011;62916;50.044;15.938;2023-06-10T15:11:31;4.80;;;4.20;;
74465;SDS011;62916;50.044;15.938;2023-06-10T15:14:02;5.30;;;3.90;;
74465;SDS011;62916;50.044;15.938;2023-06-10T15:16:33;5.20;;;4.70;;